sensor_id;sensor_type;location;lat;lon;timestamp;pressure;altitude;pressure_sealevel;temperature;humidity
7962;BME280;4026;43.652;24.906;2023-01-24T00:00:04;100676.63;;;0.46;100.00
7962;BME280;4026;43.652;24.906;2023-01-24T00:02:31;100687.53;;;0.43;100.00
7962;BME280;4026;43.652;24.906;2023-01-24T00:04:58;100679.25;;;0.32;100.00
7962;BME280;4026;43.652;24.906;2023-01-24T00:07:25;100687.59;;;0.31;100.00
7962;BME280;4026;43.652;24.906;2023-01-24T00:09:52;100685.94;;;0.29;100.00
7962;BME280;4026;43.652;24.906;2023-01-24T00:12:20;100697.69;;;0.30;100.00
7962;BME280;4026;43.652;24.906;2023-01-24T00:14:47;100676.72;;;0.28;100.00
7962;BME280;4026;43.652;24.906;2023-01-24T00:17:14;100691.78;;;0.34;100.00
7962;BME280;4026;43.652;24.906;2023-01-24T00:19:41;100682.56;;;0.34;100.00
7962;BME280;4026;43.652;24.906;2023-01-24T00:22:08;100687.59;;;0.31;100.00
7962;BME280;4026;43.652;24.906;2023-01-24T00:24:34;100696.84;;;0.31;100.00
7962;BME280;4026;43.652;24.906;2023-01-24T00:27:01;100696.81;;;0.37;100.00
7962;BME280;4026;43.652;24.906;2023-01-24T00:29:29;100693.47;;;0.35;100.00
7962;BME280;4026;43.652;24.906;2023-01-24T00:31:56;100688.47;;;0.26;100.00
7962;BME280;4026;43.652;24.906;2023-01-24T00:34:23;100692.66;;;0.28;100.00
7962;BME280;4026;43.652;24.906;2023-01-24T00:36:50;100689.31;;;0.26;100.00
7962;BME280;4026;43.652;24.906;2023-01-24T00:39:17;100699.34;;;0.31;100.00
7962;BME280;4026;43.652;24.906;2023-01-24T00:41:44;100696.00;;;0.33;100.00
7962;BME280;4026;43.652;24.906;2023-01-24T00:44:11;100696.88;;;0.21;100.00
7962;BME280;4026;43.652;24.906;2023-01-24T00:46:39;100706.06;;;0.26;100.00
7962;BME280;4026;43.652;24.906;2023-01-24T00:49:06;100693.50;;;0.26;100.00
7962;BME280;4026;43.652;24.906;2023-01-24T00:51:34;100708.59;;;0.22;100.00
7962;BME280;4026;43.652;24.906;2023-01-24T00:54:00;100693.50;;;0.22;100.00
7962;BME280;4026;43.652;24.906;2023-01-24T00:56:27;100704.41;;;0.32;100.00
7962;BME280;4026;43.652;24.906;2023-01-24T00:58:54;100693.50;;;0.26;100.00
7962;BME280;4026;43.652;24.906;2023-01-24T01:01:21;100695.22;;;0.17;100.00
7962;BME280;4026;43.652;24.906;2023-01-24T01:03:49;100696.88;;;0.25;100.00
7962;BME280;4026;43.652;24.906;2023-01-24T01:06:16;100717.84;;;0.24;100.00
7962;BME280;4026;43.652;24.906;2023-01-24T01:08:43;100712.78;;;0.28;100.00
7962;BME280;4026;43.652;24.906;2023-01-24T01:11:10;100704.44;;;0.21;100.00
7962;BME280;4026;43.652;24.906;2023-01-24T01:13:37;100712.81;;;0.24;100.00
7962;BME280;4026;43.652;24.906;2023-01-24T01:16:05;100717.00;;;0.25;100.00
7962;BME280;4026;43.652;24.906;2023-01-24T01:18:34;100701.09;;;0.13;100.00
7962;BME280;4026;43.652;24.906;2023-01-24T01:21:02;100711.97;;;0.21;100.00
7962;BME280;4026;43.652;24.906;2023-01-24T01:23:30;100711.97;;;0.21;100.00
7962;BME280;4026;43.652;24.906;2023-01-24T01:26:00;100704.47;;;0.15;100.00
7962;BME280;4026;43.652;24.906;2023-01-24T01:28:28;100696.06;;;0.16;100.00
7962;BME280;4026;43.652;24.906;2023-01-24T01:30:55;100697.72;;;0.17;100.00
7962;BME280;4026;43.652;24.906;2023-01-24T01:33:22;100694.38;;;0.17;100.00
7962;BME280;4026;43.652;24.906;2023-01-24T01:35:50;100691.88;;;0.18;100.00
7962;BME280;4026;43.652;24.906;2023-01-24T01:38:19;100693.50;;;0.22;100.00
7962;BME280;4026;43.652;24.906;2023-01-24T01:40:47;100691.84;;;0.25;100.00
7962;BME280;4026;43.652;24.906;2023-01-24T01:43:15;100686.81;;;0.17;100.00
7962;BME280;4026;43.652;24.906;2023-01-24T01:45:43;100699.44;;;0.15;100.00
7962;BME280;4026;43.652;24.906;2023-01-24T01:48:34;100701.91;;;0.20;100.00
7962;BME280;4026;43.652;24.906;2023-01-24T01:51:06;100706.09;;;0.19;100.00
7962;BME280;4026;43.652;24.906;2023-01-24T01:53:44;100703.53;;;0.29;100.00
7962;BME280;4026;43.652;24.906;2023-01-24T01:56:20;100706.09;;;0.24;100.00
7962;BME280;4026;43.652;24.906;2023-01-24T01:58:49;100698.59;;;0.06;100.00
7962;BME280;4026;43.652;24.906;2023-01-24T02:01:15;100695.25;;;0.08;100.00
7962;BME280;4026;43.652;24.906;2023-01-24T02:03:49;100700.31;;;-0.04;100.00
7962;BME280;4026;43.652;24.906;2023-01-24T02:06:36;100696.97;;;0.00;100.00
7962;BME280;4026;43.652;24.906;2023-01-24T02:09:10;100693.66;;;-0.14;100.00
7962;BME280;4026;43.652;24.906;2023-01-24T02:11:38;100689.44;;;-0.09;100.00
7962;BME280;4026;43.652;24.906;2023-01-24T02:14:05;100681.91;;;-0.18;100.00
7962;BME280;4026;43.652;24.906;2023-01-24T02:17:01;100680.25;;;-0.16;100.00
7962;BME280;4026;43.652;24.906;2023-01-24T02:22:35;100681.09;;;-0.14;100.00
7962;BME280;4026;43.652;24.906;2023-01-24T02:25:10;100678.56;;;-0.14;100.00
7962;BME280;4026;43.652;24.906;2023-01-24T02:27:41;100681.94;;;-0.21;100.00
7962;BME280;4026;43.652;24.906;2023-01-24T02:30:09;100676.84;;;0.00;100.00
7962;BME280;4026;43.652;24.906;2023-01-24T02:32:36;100681.91;;;-0.18;100.00
7962;BME280;4026;43.652;24.906;2023-01-24T02:35:04;100691.13;;;-0.08;100.00
7962;BME280;4026;43.652;24.906;2023-01-24T02:37:32;100704.53;;;-0.14;100.00
7962;BME280;4026;43.652;24.906;2023-01-24T02:40:04;100698.66;;;-0.08;100.00
7962;BME280;4026;43.652;24.906;2023-01-24T02:42:36;100702.00;;;-0.08;100.00
7962;BME280;4026;43.652;24.906;2023-01-24T02:45:10;100707.03;;;-0.09;100.00
7962;BME280;4026;43.652;24.906;2023-01-24T02:47:42;100704.50;;;-0.09;100.00
7962;BME280;4026;43.652;24.906;2023-01-24T02:50:11;100703.69;;;-0.02;100.00
7962;BME280;4026;43.652;24.906;2023-01-24T02:52:38;100717.06;;;-0.03;100.00
7962;BME280;4026;43.652;24.906;2023-01-24T02:55:22;100711.19;;;0.03;100.00
7962;BME280;4026;43.652;24.906;2023-01-24T02:57:50;100716.19;;;0.06;100.00
7962;BME280;4026;43.652;24.906;2023-01-24T03:00:32;100713.69;;;0.07;100.00
7962;BME280;4026;43.652;24.906;2023-01-24T03:02:59;100717.06;;;0.05;100.00
7962;BME280;4026;43.652;24.906;2023-01-24T03:05:27;100714.56;;;0.06;100.00
7962;BME280;4026;43.652;24.906;2023-01-24T03:08:05;100703.69;;;-0.02;100.00
7962;BME280;4026;43.652;24.906;2023-01-24T03:10:33;100712.03;;;-0.06;100.00
7962;BME280;4026;43.652;24.906;2023-01-24T03:13:00;100715.41;;;-0.10;100.00
7962;BME280;4026;43.652;24.906;2023-01-24T03:15:46;100717.06;;;-0.06;100.00
7962;BME280;4026;43.652;24.906;2023-01-24T03:18:30;100712.91;;;-0.03;100.00
7962;BME280;4026;43.652;24.906;2023-01-24T03:21:15;100712.03;;;-0.06;100.00
7962;BME280;4026;43.652;24.906;2023-01-24T03:23:59;100707.06;;;-0.18;100.00
7962;BME280;4026;43.652;24.906;2023-01-24T03:26:44;100712.03;;;-0.03;100.00
7962;BME280;4026;43.652;24.906;2023-01-24T03:29:29;100707.88;;;-0.15;100.00
7962;BME280;4026;43.652;24.906;2023-01-24T03:32:14;100698.69;;;-0.11;100.00
7962;BME280;4026;43.652;24.906;2023-01-24T03:34:58;100698.69;;;-0.17;100.00
7962;BME280;4026;43.652;24.906;2023-01-24T03:37:25;100699.56;;;-0.26;100.00
7962;BME280;4026;43.652;24.906;2023-01-24T03:40:12;100697.03;;;-0.25;100.00
7962;BME280;4026;43.652;24.906;2023-01-24T03:42:40;100691.16;;;-0.33;100.00
7962;BME280;4026;43.652;24.906;2023-01-24T03:45:14;100697.03;;;-0.34;100.00
7962;BME280;4026;43.652;24.906;2023-01-24T03:47:45;100690.34;;;-0.35;100.00
7962;BME280;4026;43.652;24.906;2023-01-24T03:50:21;100693.66;;;-0.30;100.00
7962;BME280;4026;43.652;24.906;2023-01-24T03:53:06;100690.34;;;-0.44;100.00
7962;BME280;4026;43.652;24.906;2023-01-24T03:55:33;100687.00;;;-0.40;100.00
7962;BME280;4026;43.652;24.906;2023-01-24T03:58:00;100685.31;;;-0.39;100.00
7962;BME280;4026;43.652;24.906;2023-01-24T04:00:27;100685.31;;;-0.38;100.00
7962;BME280;4026;43.652;24.906;2023-01-24T04:02:55;100693.66;;;-0.30;100.00
7962;BME280;4026;43.652;24.906;2023-01-24T04:05:22;100688.66;;;-0.36;100.00
7962;BME280;4026;43.652;24.906;2023-01-24T04:07:49;100687.84;;;-0.35;100.00
7962;BME280;4026;43.652;24.906;2023-01-24T04:10:16;100691.19;;;-0.34;100.00
7962;BME280;4026;43.652;24.906;2023-01-24T04:12:44;100691.19;;;-0.40;100.00
7962;BME280;4026;43.652;24.906;2023-01-24T04:15:15;100687.84;;;-0.35;100.00
7962;BME280;4026;43.652;24.906;2023-01-24T04:17:42;100680.31;;;-0.35;100.00
7962;BME280;4026;43.652;24.906;2023-01-24T04:20:12;100679.44;;;-0.38;100.00
7962;BME280;4026;43.652;24.906;2023-01-24T04:22:39;100684.50;;;-0.40;100.00
7962;BME280;4026;43.652;24.906;2023-01-24T04:25:07;100680.28;;;-0.38;100.00
7962;BME280;4026;43.652;24.906;2023-01-24T04:27:35;100685.31;;;-0.47;100.00
7962;BME280;4026;43.652;24.906;2023-01-24T04:30:02;100686.19;;;-0.47;100.00
7962;BME280;4026;43.652;24.906;2023-01-24T04:32:29;100681.13;;;-0.39;100.00
7962;BME280;4026;43.652;24.906;2023-01-24T04:34:55;100678.66;;;-0.43;100.00
7962;BME280;4026;43.652;24.906;2023-01-24T04:37:24;100688.69;;;-0.45;100.00
7962;BME280;4026;43.652;24.906;2023-01-24T04:39:51;100686.16;;;-0.42;100.00
7962;BME280;4026;43.652;24.906;2023-01-24T04:42:17;100691.22;;;-0.65;100.00
7962;BME280;4026;43.652;24.906;2023-01-24T04:44:44;100681.16;;;-0.51;100.00
7962;BME280;4026;43.652;24.906;2023-01-24T04:47:11;100683.69;;;-0.60;100.00
7962;BME280;4026;43.652;24.906;2023-01-24T04:49:38;100687.84;;;-0.39;100.00
7962;BME280;4026;43.652;24.906;2023-01-24T04:52:06;100684.53;;;-0.52;100.00
7962;BME280;4026;43.652;24.906;2023-01-24T04:54:34;100693.72;;;-0.65;100.00
7962;BME280;4026;43.652;24.906;2023-01-24T04:57:01;100687.88;;;-0.69;100.00
7962;BME280;4026;43.652;24.906;2023-01-24T04:59:28;100680.31;;;-0.62;100.00
7962;BME280;4026;43.652;24.906;2023-01-24T05:01:55;100671.94;;;-0.68;100.00
7962;BME280;4026;43.652;24.906;2023-01-24T05:04:21;100673.66;;;-0.66;100.00
7962;BME280;4026;43.652;24.906;2023-01-24T05:06:48;100687.03;;;-0.71;100.00
7962;BME280;4026;43.652;24.906;2023-01-24T05:09:15;100684.50;;;-0.74;100.00
7962;BME280;4026;43.652;24.906;2023-01-24T05:11:43;100693.75;;;-0.73;100.00
7962;BME280;4026;43.652;24.906;2023-01-24T05:14:10;100693.72;;;-0.82;100.00
7962;BME280;4026;43.652;24.906;2023-01-24T05:16:37;100697.91;;;-0.79;100.00
7962;BME280;4026;43.652;24.906;2023-01-24T05:19:05;100698.75;;;-0.73;100.00
7962;BME280;4026;43.652;24.906;2023-01-24T05:21:32;100701.25;;;-0.71;100.00
7962;BME280;4026;43.652;24.906;2023-01-24T05:23:58;100701.25;;;-0.83;100.00
7962;BME280;4026;43.652;24.906;2023-01-24T05:26:26;100711.28;;;-0.85;100.00
7962;BME280;4026;43.652;24.906;2023-01-24T05:28:54;100705.44;;;-0.79;100.00
7962;BME280;4026;43.652;24.906;2023-01-24T05:31:21;100707.13;;;-0.77;100.00
7962;BME280;4026;43.652;24.906;2023-01-24T05:33:48;100703.75;;;-0.82;100.00
7962;BME280;4026;43.652;24.906;2023-01-24T05:36:17;100706.28;;;-0.82;100.00
7962;BME280;4026;43.652;24.906;2023-01-24T05:38:45;100707.13;;;-0.77;100.00
7962;BME280;4026;43.652;24.906;2023-01-24T05:41:14;100710.47;;;-0.75;100.00
7962;BME280;4026;43.652;24.906;2023-01-24T05:43:42;100723.84;;;-0.97;100.00
7962;BME280;4026;43.652;24.906;2023-01-24T05:46:13;100717.16;;;-0.92;100.00
7962;BME280;4026;43.652;24.906;2023-01-24T05:48:41;100720.47;;;-0.96;100.00
7962;BME280;4026;43.652;24.906;2023-01-24T05:51:09;100719.66;;;-1.01;100.00
7962;BME280;4026;43.652;24.906;2023-01-24T05:53:38;100725.50;;;-0.99;100.00
7962;BME280;4026;43.652;24.906;2023-01-24T05:56:07;100725.53;;;-0.98;100.00
7962;BME280;4026;43.652;24.906;2023-01-24T05:58:38;100728.00;;;-0.96;100.00
7962;BME280;4026;43.652;24.906;2023-01-24T06:01:08;100733.03;;;-1.02;100.00
7962;BME280;4026;43.652;24.906;2023-01-24T06:03:38;100737.22;;;-1.04;100.00
7962;BME280;4026;43.652;24.906;2023-01-24T06:06:06;100745.56;;;-1.05;100.00
7962;BME280;4026;43.652;24.906;2023-01-24T06:08:34;100742.25;;;-1.10;100.00
7962;BME280;4026;43.652;24.906;2023-01-24T06:11:02;100743.06;;;-1.05;100.00
7962;BME280;4026;43.652;24.906;2023-01-24T06:13:30;100757.31;;;-1.10;100.00
7962;BME280;4026;43.652;24.906;2023-01-24T06:16:01;100764.81;;;-1.09;100.00
7962;BME280;4026;43.652;24.906;2023-01-24T06:18:28;100772.41;;;-0.92;100.00
7962;BME280;4026;43.652;24.906;2023-01-24T06:20:57;100768.16;;;-1.02;100.00
7962;BME280;4026;43.652;24.906;2023-01-24T06:23:25;100774.06;;;-0.94;100.00
7962;BME280;4026;43.652;24.906;2023-01-24T06:25:53;100775.72;;;-0.99;100.00
7962;BME280;4026;43.652;24.906;2023-01-24T06:28:21;100785.75;;;-0.99;100.00
7962;BME280;4026;43.652;24.906;2023-01-24T06:30:57;100782.41;;;-1.01;100.00
7962;BME280;4026;43.652;24.906;2023-01-24T06:33:33;100784.94;;;-0.95;100.00
7962;BME280;4026;43.652;24.906;2023-01-24T06:36:19;100784.94;;;-1.04;100.00
7962;BME280;4026;43.652;24.906;2023-01-24T06:38:50;100785.75;;;-0.99;100.00
7962;BME280;4026;43.652;24.906;2023-01-24T06:41:17;100792.47;;;-0.95;100.00
7962;BME280;4026;43.652;24.906;2023-01-24T06:43:45;100797.50;;;-0.95;100.00
7962;BME280;4026;43.652;24.906;2023-01-24T06:46:13;100802.50;;;-0.98;100.00
7962;BME280;4026;43.652;24.906;2023-01-24T06:48:42;100804.19;;;-0.91;100.00
7962;BME280;4026;43.652;24.906;2023-01-24T06:51:12;100809.22;;;-0.85;100.00
7962;BME280;4026;43.652;24.906;2023-01-24T06:53:39;100809.19;;;-1.03;100.00
7962;BME280;4026;43.652;24.906;2023-01-24T06:56:07;100814.22;;;-1.00;100.00
7962;BME280;4026;43.652;24.906;2023-01-24T06:58:34;100817.56;;;-0.91;100.00
7962;BME280;4026;43.652;24.906;2023-01-24T07:01:01;100821.81;;;-0.77;100.00
7962;BME280;4026;43.652;24.906;2023-01-24T07:03:28;100825.09;;;-0.91;100.00
7962;BME280;4026;43.652;24.906;2023-01-24T07:05:54;100823.44;;;-0.85;100.00
7962;BME280;4026;43.652;24.906;2023-01-24T07:08:23;100827.63;;;-0.92;100.00
7962;BME280;4026;43.652;24.906;2023-01-24T07:10:50;100818.41;;;-0.88;100.00
7962;BME280;4026;43.652;24.906;2023-01-24T07:13:16;100829.34;;;-0.73;100.00
7962;BME280;4026;43.652;24.906;2023-01-24T07:15:43;100832.66;;;-0.83;100.00
7962;BME280;4026;43.652;24.906;2023-01-24T07:18:12;100841.06;;;-0.72;100.00
7962;BME280;4026;43.652;24.906;2023-01-24T07:20:39;100832.69;;;-0.64;100.00
7962;BME280;4026;43.652;24.906;2023-01-24T07:23:16;100836.88;;;-0.62;100.00
7962;BME280;4026;43.652;24.906;2023-01-24T07:25:47;100836.03;;;-0.67;100.00
7962;BME280;4026;43.652;24.906;2023-01-24T07:28:14;100842.72;;;-0.71;100.00
7962;BME280;4026;43.652;24.906;2023-01-24T07:30:41;100844.44;;;-0.70;100.00
7962;BME280;4026;43.652;24.906;2023-01-24T07:33:10;100839.41;;;-0.65;100.00
7962;BME280;4026;43.652;24.906;2023-01-24T07:35:38;100841.91;;;-0.59;100.00
7962;BME280;4026;43.652;24.906;2023-01-24T07:38:05;100846.09;;;-0.62;100.00
7962;BME280;4026;43.652;24.906;2023-01-24T07:40:32;100844.44;;;-0.56;100.00
7962;BME280;4026;43.652;24.906;2023-01-24T07:43:01;100846.97;;;-0.57;100.00
7962;BME280;4026;43.652;24.906;2023-01-24T07:45:28;100852.84;;;-0.49;100.00
7962;BME280;4026;43.652;24.906;2023-01-24T07:47:56;100851.13;;;-0.50;100.00
7962;BME280;4026;43.652;24.906;2023-01-24T07:50:23;100853.66;;;-0.41;100.00
7962;BME280;4026;43.652;24.906;2023-01-24T07:52:50;100857.88;;;-0.34;100.00
7962;BME280;4026;43.652;24.906;2023-01-24T07:55:18;100863.72;;;-0.39;100.00
7962;BME280;4026;43.652;24.906;2023-01-24T07:57:45;100862.88;;;-0.52;100.00
7962;BME280;4026;43.652;24.906;2023-01-24T08:00:15;100867.91;;;-0.38;100.00
7962;BME280;4026;43.652;24.906;2023-01-24T08:02:43;100879.63;;;-0.45;100.00
7962;BME280;4026;43.652;24.906;2023-01-24T08:05:11;100871.25;;;-0.42;100.00
7962;BME280;4026;43.652;24.906;2023-01-24T08:07:37;100876.31;;;-0.35;100.00
7962;BME280;4026;43.652;24.906;2023-01-24T08:10:06;100872.88;;;-0.61;100.00
7962;BME280;4026;43.652;24.906;2023-01-24T08:12:33;100868.72;;;-0.44;100.00
7962;BME280;4026;43.652;24.906;2023-01-24T08:15:00;100871.25;;;-0.50;100.00
7962;BME280;4026;43.652;24.906;2023-01-24T08:17:28;100878.81;;;-0.27;100.00
7962;BME280;4026;43.652;24.906;2023-01-24T08:19:55;100874.63;;;-0.34;100.00
7962;BME280;4026;43.652;24.906;2023-01-24T08:22:22;100886.38;;;-0.35;100.00
7962;BME280;4026;43.652;24.906;2023-01-24T08:24:48;100883.00;;;-0.28;100.00
7962;BME280;4026;43.652;24.906;2023-01-24T08:27:15;100884.69;;;-0.37;100.00
7962;BME280;4026;43.652;24.906;2023-01-24T08:29:42;100888.03;;;-0.31;100.00
7962;BME280;4026;43.652;24.906;2023-01-24T08:32:09;100878.81;;;-0.27;100.00
7962;BME280;4026;43.652;24.906;2023-01-24T08:34:37;100876.31;;;-0.32;100.00
7962;BME280;4026;43.652;24.906;2023-01-24T08:37:04;100879.66;;;-0.24;100.00
7962;BME280;4026;43.652;24.906;2023-01-24T08:39:31;100881.34;;;-0.26;100.00
7962;BME280;4026;43.652;24.906;2023-01-24T08:41:58;100891.41;;;-0.26;100.00
7962;BME280;4026;43.652;24.906;2023-01-24T08:44:24;100890.56;;;-0.18;100.00
7962;BME280;4026;43.652;24.906;2023-01-24T08:46:51;100889.72;;;-0.14;100.00
7962;BME280;4026;43.652;24.906;2023-01-24T08:49:18;100893.06;;;-0.06;100.00
7962;BME280;4026;43.652;24.906;2023-01-24T08:51:47;100893.06;;;-0.09;100.00
7962;BME280;4026;43.652;24.906;2023-01-24T08:54:14;100901.47;;;-0.04;100.00
7962;BME280;4026;43.652;24.906;2023-01-24T08:56:41;100899.78;;;-0.08;100.00
7962;BME280;4026;43.652;24.906;2023-01-24T08:59:08;100898.13;;;0.06;100.00
7962;BME280;4026;43.652;24.906;2023-01-24T09:01:34;100900.63;;;0.00;100.00
7962;BME280;4026;43.652;24.906;2023-01-24T09:04:01;100898.13;;;0.09;100.00
7962;BME280;4026;43.652;24.906;2023-01-24T09:06:30;100898.09;;;-0.06;100.00
7962;BME280;4026;43.652;24.906;2023-01-24T09:08:58;100898.09;;;-0.15;100.00
7962;BME280;4026;43.652;24.906;2023-01-24T09:11:25;100900.63;;;0.06;100.00
7962;BME280;4026;43.652;24.906;2023-01-24T09:13:52;100899.78;;;0.07;100.00
7962;BME280;4026;43.652;24.906;2023-01-24T09:16:19;100899.78;;;0.07;100.00
7962;BME280;4026;43.652;24.906;2023-01-24T09:18:45;100894.75;;;0.07;100.00
7962;BME280;4026;43.652;24.906;2023-01-24T09:21:12;100898.09;;;0.18;100.00
7962;BME280;4026;43.652;24.906;2023-01-24T09:23:39;100906.47;;;0.08;100.00
7962;BME280;4026;43.652;24.906;2023-01-24T09:26:07;100893.09;;;0.06;100.00
7962;BME280;4026;43.652;24.906;2023-01-24T09:28:34;100898.09;;;0.23;100.00
7962;BME280;4026;43.652;24.906;2023-01-24T09:31:02;100886.34;;;0.36;100.00
7962;BME280;4026;43.652;24.906;2023-01-24T09:33:29;100893.06;;;0.21;100.00
7962;BME280;4026;43.652;24.906;2023-01-24T09:35:57;100891.38;;;0.11;100.00
7962;BME280;4026;43.652;24.906;2023-01-24T09:38:25;100894.75;;;0.19;100.00
7962;BME280;4026;43.652;24.906;2023-01-24T09:41:00;100888.03;;;0.21;100.00
7962;BME280;4026;43.652;24.906;2023-01-24T09:43:42;100888.88;;;0.28;100.00
7962;BME280;4026;43.652;24.906;2023-01-24T09:46:26;100889.72;;;0.19;100.00
7962;BME280;4026;43.652;24.906;2023-01-24T09:49:03;100883.00;;;0.31;100.00
7962;BME280;4026;43.652;24.906;2023-01-24T09:51:34;100884.66;;;0.32;100.00
7962;BME280;4026;43.652;24.906;2023-01-24T09:54:04;100881.31;;;0.36;100.00
7962;BME280;4026;43.652;24.906;2023-01-24T09:56:35;100873.78;;;0.24;100.00
7962;BME280;4026;43.652;24.906;2023-01-24T09:59:21;100874.59;;;0.26;100.00
7962;BME280;4026;43.652;24.906;2023-01-24T10:01:50;100877.94;;;0.40;100.00
7962;BME280;4026;43.652;24.906;2023-01-24T10:04:20;100882.16;;;0.39;100.00
7962;BME280;4026;43.652;24.906;2023-01-24T10:07:31;100880.47;;;0.44;100.00
7962;BME280;4026;43.652;24.906;2023-01-24T10:10:05;100888.00;;;0.43;100.00
7962;BME280;4026;43.652;24.906;2023-01-24T10:12:44;100887.19;;;0.38;100.00
7962;BME280;4026;43.652;24.906;2023-01-24T10:15:23;100875.44;;;0.44;100.00
7962;BME280;4026;43.652;24.906;2023-01-24T10:18:03;100869.50;;;0.65;100.00
7962;BME280;4026;43.652;24.906;2023-01-24T10:20:45;100865.31;;;0.63;100.00
7962;BME280;4026;43.652;24.906;2023-01-24T10:23:16;100851.03;;;0.63;100.00
7962;BME280;4026;43.652;24.906;2023-01-24T10:25:50;100860.31;;;0.48;100.00
7962;BME280;4026;43.652;24.906;2023-01-24T10:28:22;100856.94;;;0.52;100.00
7962;BME280;4026;43.652;24.906;2023-01-24T10:30:56;100851.91;;;0.67;100.00
7962;BME280;4026;43.652;24.906;2023-01-24T10:33:29;100846.84;;;0.64;100.00
7962;BME280;4026;43.652;24.906;2023-01-24T10:36:00;100851.03;;;0.76;100.00
7962;BME280;4026;43.652;24.906;2023-01-24T10:38:29;100840.97;;;0.63;100.00
7962;BME280;4026;43.652;24.906;2023-01-24T10:41:04;100838.41;;;0.73;100.00
7962;BME280;4026;43.652;24.906;2023-01-24T10:43:38;100831.69;;;0.78;100.00
7962;BME280;4026;43.652;24.906;2023-01-24T10:46:15;100822.38;;;0.98;100.00
7962;BME280;4026;43.652;24.906;2023-01-24T10:48:48;100825.81;;;0.85;100.00
7962;BME280;4026;43.652;24.906;2023-01-24T10:51:17;100829.16;;;0.81;100.00
7962;BME280;4026;43.652;24.906;2023-01-24T10:53:45;100817.38;;;0.92;100.00
7962;BME280;4026;43.652;24.906;2023-01-24T10:56:15;100814.88;;;0.89;100.00
7962;BME280;4026;43.652;24.906;2023-01-24T10:58:43;100816.53;;;0.95;100.00
7962;BME280;4026;43.652;24.906;2023-01-24T11:01:23;100818.97;;;1.08;100.00
7962;BME280;4026;43.652;24.906;2023-01-24T11:03:51;100819.91;;;0.81;100.00
7962;BME280;4026;43.652;24.906;2023-01-24T11:06:25;100817.38;;;0.92;100.00
7962;BME280;4026;43.652;24.906;2023-01-24T11:09:02;100816.47;;;1.04;100.00
7962;BME280;4026;43.652;24.906;2023-01-24T11:11:30;100809.75;;;1.04;100.00
7962;BME280;4026;43.652;24.906;2023-01-24T11:13:59;100808.84;;;1.15;100.00
7962;BME280;4026;43.652;24.906;2023-01-24T11:16:33;100817.25;;;1.10;100.00
7962;BME280;4026;43.652;24.906;2023-01-24T11:19:02;100808.06;;;1.02;100.00
7962;BME280;4026;43.652;24.906;2023-01-24T11:21:30;100810.56;;;1.06;100.00
7962;BME280;4026;43.652;24.906;2023-01-24T11:24:00;100803.84;;;1.11;100.00
7962;BME280;4026;43.652;24.906;2023-01-24T11:26:29;100814.72;;;1.15;100.00
7962;BME280;4026;43.652;24.906;2023-01-24T11:28:58;100807.19;;;1.10;100.00
7962;BME280;4026;43.652;24.906;2023-01-24T11:31:36;100803.72;;;1.30;100.00
7962;BME280;4026;43.652;24.906;2023-01-24T11:34:24;100803.81;;;1.15;100.00
7962;BME280;4026;43.652;24.906;2023-01-24T11:37:05;100803.81;;;1.18;100.00
7962;BME280;4026;43.652;24.906;2023-01-24T11:39:38;100799.66;;;1.04;100.00
7962;BME280;4026;43.652;24.906;2023-01-24T11:42:16;100800.41;;;1.22;100.00
7962;BME280;4026;43.652;24.906;2023-01-24T11:44:55;100800.34;;;1.28;100.00
7962;BME280;4026;43.652;24.906;2023-01-24T11:47:30;100795.31;;;1.34;100.00
7962;BME280;4026;43.652;24.906;2023-01-24T11:50:17;100788.84;;;0.87;100.00
7962;BME280;4026;43.652;24.906;2023-01-24T11:53:00;100794.72;;;0.89;100.00
7962;BME280;4026;43.652;24.906;2023-01-24T11:55:38;100783.00;;;0.85;100.00
7962;BME280;4026;43.652;24.906;2023-01-24T11:58:25;100789.69;;;0.89;100.00
7962;BME280;4026;43.652;24.906;2023-01-24T12:01:04;100787.22;;;0.80;100.00
7962;BME280;4026;43.652;24.906;2023-01-24T12:03:48;100785.47;;;0.93;100.00
7962;BME280;4026;43.652;24.906;2023-01-24T12:06:28;100789.66;;;0.97;100.00
7962;BME280;4026;43.652;24.906;2023-01-24T12:09:09;100794.75;;;0.86;100.00
7962;BME280;4026;43.652;24.906;2023-01-24T12:11:44;100790.44;;;1.06;100.00
7962;BME280;4026;43.652;24.906;2023-01-24T12:14:34;100790.41;;;1.09;100.00
7962;BME280;4026;43.652;24.906;2023-01-24T12:17:16;100789.63;;;1.00;100.00
7962;BME280;4026;43.652;24.906;2023-01-24T12:20:02;100788.81;;;0.93;100.00
7962;BME280;4026;43.652;24.906;2023-01-24T12:22:34;100792.13;;;1.01;100.00
7962;BME280;4026;43.652;24.906;2023-01-24T12:25:16;100792.09;;;1.13;100.00
7962;BME280;4026;43.652;24.906;2023-01-24T12:27:49;100788.88;;;0.81;100.00
7962;BME280;4026;43.652;24.906;2023-01-24T12:30:30;100798.06;;;0.91;100.00
7962;BME280;4026;43.652;24.906;2023-01-24T12:33:02;100794.84;;;0.67;100.00
7962;BME280;4026;43.652;24.906;2023-01-24T12:35:33;100790.59;;;0.79;100.00
7962;BME280;4026;43.652;24.906;2023-01-24T12:38:04;100787.19;;;0.86;100.00
7962;BME280;4026;43.652;24.906;2023-01-24T12:40:44;100788.91;;;0.75;100.00
7962;BME280;4026;43.652;24.906;2023-01-24T12:43:19;100788.88;;;0.81;100.00
7962;BME280;4026;43.652;24.906;2023-01-24T12:45:55;100798.16;;;0.71;100.00
7962;BME280;4026;43.652;24.906;2023-01-24T12:48:32;100788.97;;;0.62;100.00
7962;BME280;4026;43.652;24.906;2023-01-24T12:51:09;100794.06;;;0.50;100.00
7962;BME280;4026;43.652;24.906;2023-01-24T12:53:44;100789.78;;;0.66;100.00
7962;BME280;4026;43.652;24.906;2023-01-24T12:56:19;100788.09;;;0.66;100.00
7962;BME280;4026;43.652;24.906;2023-01-24T12:58:48;100794.03;;;0.52;100.00
7962;BME280;4026;43.652;24.906;2023-01-24T13:02:01;100790.69;;;0.48;100.00
7962;BME280;4026;43.652;24.906;2023-01-24T13:04:40;100796.56;;;0.56;100.00
7962;BME280;4026;43.652;24.906;2023-01-24T13:07:17;100797.38;;;0.55;100.00
7962;BME280;4026;43.652;24.906;2023-01-24T13:09:52;100799.94;;;0.46;100.00
7962;BME280;4026;43.652;24.906;2023-01-24T13:12:23;100800.78;;;0.45;100.00
7962;BME280;4026;43.652;24.906;2023-01-24T13:14:54;100805.81;;;0.50;100.00
7962;BME280;4026;43.652;24.906;2023-01-24T13:17:43;100799.09;;;0.50;100.00